createdAt,value
2022-12-18T00:00:28.230Z,6.07
2022-12-18T00:02:58.078Z,5.60
2022-12-18T00:05:25.763Z,5.63
2022-12-18T00:07:55.000Z,5.68
2022-12-18T00:10:23.246Z,5.50
2022-12-18T00:12:53.002Z,5.20
2022-12-18T00:15:21.618Z,4.82
2022-12-18T00:17:50.450Z,5.03
2022-12-18T00:20:26.860Z,5.85
2022-12-18T00:22:55.559Z,5.25
2022-12-18T00:25:24.742Z,4.95
2022-12-18T00:27:58.733Z,4.90
2022-12-18T00:32:57.189Z,5.13
2022-12-18T00:35:27.928Z,5.28
2022-12-18T00:37:55.554Z,5.60
2022-12-18T00:40:25.797Z,5.55
2022-12-18T00:42:57.873Z,5.50
2022-12-18T00:45:31.540Z,4.95
2022-12-18T00:48:05.252Z,5.40
2022-12-18T00:50:34.301Z,5.25
2022-12-18T00:53:02.496Z,5.50
2022-12-18T00:55:34.804Z,5.93
2022-12-18T00:58:06.921Z,5.90
2022-12-18T01:00:45.091Z,5.40
2022-12-18T01:03:17.958Z,6.10
2022-12-18T01:05:45.770Z,5.82
2022-12-18T01:08:13.836Z,5.53
2022-12-18T01:10:45.192Z,5.43
2022-12-18T01:13:14.730Z,5.43
2022-12-18T01:15:52.230Z,5.28
2022-12-18T01:18:20.841Z,5.20
2022-12-18T01:20:50.957Z,5.28
2022-12-18T01:23:19.409Z,5.57
2022-12-18T01:25:47.346Z,5.78
2022-12-18T01:28:14.912Z,5.57
2022-12-18T01:30:46.391Z,4.55
2022-12-18T01:33:15.824Z,5.00
2022-12-18T01:35:44.503Z,6.32
2022-12-18T01:38:13.198Z,5.90
2022-12-18T01:40:41.969Z,6.35
2022-12-18T01:43:14.510Z,5.35
2022-12-18T01:45:46.181Z,6.60
2022-12-18T01:48:15.261Z,5.45
2022-12-18T01:50:44.681Z,5.68
2022-12-18T01:53:16.682Z,5.32
2022-12-18T01:55:58.113Z,5.57
2022-12-18T01:58:45.553Z,6.55
2022-12-18T02:01:18.904Z,5.90
2022-12-18T02:03:52.924Z,6.03
2022-12-18T02:06:41.483Z,6.00
2022-12-18T02:09:22.973Z,5.65
2022-12-18T02:11:58.903Z,6.45
2022-12-18T02:14:46.093Z,6.90
2022-12-18T02:17:36.723Z,6.32
2022-12-18T02:20:21.844Z,6.70
2022-12-18T02:23:23.558Z,6.13
2022-12-18T02:26:21.833Z,7.28
2022-12-18T02:29:06.432Z,6.40
2022-12-18T02:31:44.116Z,6.70
2022-12-18T02:34:14.919Z,6.22
2022-12-18T02:36:47.905Z,8.35
2022-12-18T02:39:19.082Z,6.00
2022-12-18T02:41:59.849Z,7.30
2022-12-18T02:44:29.933Z,6.80
2022-12-18T02:46:58.672Z,7.20
2022-12-18T02:49:55.116Z,6.65
2022-12-18T02:53:11.513Z,6.70
2022-12-18T02:56:29.147Z,6.88
2022-12-18T02:59:14.861Z,6.47
2022-12-18T03:02:13.997Z,6.80
2022-12-18T03:04:59.101Z,7.85
2022-12-18T03:07:52.776Z,6.65
2022-12-18T03:10:29.152Z,8.20
2022-12-18T03:13:28.444Z,10.13
2022-12-18T03:16:00.632Z,7.72
2022-12-18T03:21:19.905Z,8.70
2022-12-18T03:23:54.241Z,8.55
2022-12-18T03:26:28.532Z,7.07
2022-12-18T03:29:13.939Z,7.30
2022-12-18T03:31:44.458Z,6.97
2022-12-18T03:34:19.165Z,4.82
2022-12-18T03:36:48.083Z,7.03
2022-12-18T03:39:16.784Z,8.20
2022-12-18T03:42:14.926Z,8.77
2022-12-18T03:45:09.980Z,7.30
2022-12-18T03:47:45.530Z,9.07
2022-12-18T03:50:24.333Z,11.05
2022-12-18T03:53:07.878Z,7.70
2022-12-18T03:55:37.673Z,8.40
2022-12-18T03:58:08.757Z,9.15
2022-12-18T04:00:56.751Z,8.55
2022-12-18T04:03:26.821Z,9.18
2022-12-18T04:05:57.214Z,9.38
2022-12-18T04:08:26.293Z,8.63
2022-12-18T04:11:03.548Z,8.18
2022-12-18T04:13:37.911Z,8.65
2022-12-18T04:16:10.876Z,8.55
2022-12-18T04:18:42.110Z,9.73
2022-12-18T04:21:11.872Z,8.88
2022-12-18T04:23:39.779Z,7.63
2022-12-18T04:26:08.400Z,8.82
2022-12-18T04:28:54.091Z,10.45
2022-12-18T04:31:22.658Z,9.65
2022-12-18T04:33:50.686Z,9.50
2022-12-18T04:36:18.543Z,9.50
2022-12-18T04:38:47.384Z,7.82
2022-12-18T04:41:17.253Z,9.82
2022-12-18T04:43:48.030Z,10.70
2022-12-18T04:46:15.671Z,12.27
2022-12-18T04:48:43.228Z,11.88
2022-12-18T04:51:10.727Z,12.05
2022-12-18T04:53:38.577Z,11.48
2022-12-18T04:56:11.675Z,11.98
2022-12-18T04:58:41.076Z,10.82
2022-12-18T05:01:09.235Z,10.60
2022-12-18T05:03:38.541Z,12.10
2022-12-18T05:06:07.505Z,8.32
2022-12-18T05:08:35.265Z,10.90
2022-12-18T05:11:12.561Z,12.07
2022-12-18T05:13:40.585Z,8.75
2022-12-18T05:16:08.895Z,12.13
2022-12-18T05:18:36.826Z,9.77
2022-12-18T05:21:04.692Z,11.77
2022-12-18T05:23:32.219Z,10.15
2022-12-18T05:26:02.117Z,8.38
2022-12-18T05:28:31.258Z,9.02
2022-12-18T05:31:00.602Z,10.88
2022-12-18T05:33:31.474Z,10.63
2022-12-18T05:36:04.227Z,11.63
2022-12-18T05:38:34.719Z,9.97
2022-12-18T05:41:02.256Z,11.95
2022-12-18T05:43:30.162Z,11.13
2022-12-18T05:45:58.810Z,12.30
2022-12-18T05:48:26.412Z,8.45
2022-12-18T05:50:53.963Z,11.27
2022-12-18T05:53:21.980Z,10.02
2022-12-18T05:55:49.574Z,11.43
2022-12-18T05:58:17.659Z,8.65
2022-12-18T06:00:47.093Z,13.77
2022-12-18T06:03:15.510Z,9.68
2022-12-18T06:05:45.536Z,9.82
2022-12-18T06:08:14.365Z,12.85
2022-12-18T06:10:42.617Z,9.95
2022-12-18T06:13:10.309Z,13.07
2022-12-18T06:15:39.482Z,11.15
2022-12-18T06:18:07.129Z,11.25
2022-12-18T06:20:35.013Z,11.45
2022-12-18T06:23:02.495Z,11.88
2022-12-18T06:25:30.252Z,12.35
2022-12-18T06:27:57.788Z,13.88
2022-12-18T06:30:25.383Z,12.25
2022-12-18T06:32:56.692Z,11.98
2022-12-18T06:35:24.740Z,13.40
2022-12-18T06:37:52.338Z,12.52
2022-12-18T06:40:20.328Z,12.32
2022-12-18T06:42:47.970Z,13.80
2022-12-18T06:45:18.658Z,12.57
2022-12-18T06:47:46.186Z,12.95
2022-12-18T06:50:14.638Z,13.07
2022-12-18T06:52:42.217Z,13.63
2022-12-18T06:55:12.125Z,12.75
2022-12-18T06:57:40.503Z,12.82
2022-12-18T07:00:08.818Z,13.05
2022-12-18T07:02:36.934Z,13.70
2022-12-18T07:05:10.253Z,14.45
2022-12-18T07:10:06.218Z,12.15
2022-12-18T07:12:33.965Z,12.10
2022-12-18T07:15:01.420Z,14.00
2022-12-18T07:17:31.022Z,13.30
2022-12-18T07:19:58.568Z,15.35
2022-12-18T07:22:29.185Z,14.43
2022-12-18T07:24:56.890Z,11.30
2022-12-18T07:27:24.854Z,14.63
2022-12-18T07:29:52.457Z,12.75
2022-12-18T07:32:20.001Z,12.80
2022-12-18T07:34:47.567Z,12.05
2022-12-18T07:37:15.838Z,12.57
2022-12-18T07:39:43.503Z,12.60
2022-12-18T07:42:29.253Z,12.43
2022-12-18T07:44:56.904Z,12.93
2022-12-18T07:47:24.666Z,14.85
2022-12-18T07:49:52.319Z,11.23
2022-12-18T07:52:25.607Z,13.70
2022-12-18T07:57:49.067Z,13.35
2022-12-18T08:00:09.533Z,13.55
2022-12-18T08:02:40.181Z,14.25
2022-12-18T08:05:08.004Z,14.82
2022-12-18T08:07:35.458Z,14.02
2022-12-18T08:10:03.066Z,12.30
2022-12-18T08:12:31.735Z,13.93
2022-12-18T08:14:59.308Z,14.20
2022-12-18T08:17:26.818Z,12.70
2022-12-18T08:19:54.417Z,14.60
2022-12-18T08:22:21.876Z,13.05
2022-12-18T08:24:49.450Z,13.90
2022-12-18T08:27:32.479Z,14.52
2022-12-18T08:30:00.196Z,13.25
2022-12-18T08:32:28.976Z,12.73
2022-12-18T08:34:56.603Z,14.30
2022-12-18T08:37:25.829Z,13.60
2022-12-18T08:39:53.349Z,14.73
2022-12-18T08:42:39.141Z,11.73
2022-12-18T08:45:07.152Z,16.38
2022-12-18T08:47:34.746Z,15.48
2022-12-18T08:50:02.466Z,14.13
2022-12-18T08:52:33.701Z,10.88
2022-12-18T08:55:01.399Z,12.32
2022-12-18T08:57:30.746Z,12.25
2022-12-18T08:59:58.268Z,12.80
2022-12-18T09:02:26.289Z,12.23
2022-12-18T09:04:57.369Z,16.55
2022-12-18T09:07:25.411Z,15.80
2022-12-18T09:09:53.045Z,14.70
2022-12-18T09:12:20.876Z,12.65
2022-12-18T09:14:48.502Z,12.95
2022-12-18T09:17:16.249Z,15.95
2022-12-18T09:19:44.543Z,13.50
2022-12-18T09:22:12.148Z,13.38
2022-12-18T09:24:39.892Z,14.75
2022-12-18T09:27:07.550Z,13.50
2022-12-18T09:29:35.079Z,15.20
2022-12-18T09:32:02.710Z,14.07
2022-12-18T09:34:30.268Z,11.57
2022-12-18T09:36:57.819Z,14.52
2022-12-18T09:39:25.401Z,13.68
2022-12-18T09:41:56.239Z,13.30
2022-12-18T09:44:45.406Z,14.32
2022-12-18T09:47:32.534Z,13.77
2022-12-18T09:50:05.361Z,12.43
2022-12-18T09:52:43.208Z,13.70
2022-12-18T09:55:38.442Z,13.27
2022-12-18T09:58:28.081Z,13.60
2022-12-18T10:00:56.386Z,12.82
2022-12-18T10:03:24.226Z,15.68
2022-12-18T10:06:23.053Z,13.15
2022-12-18T10:09:00.314Z,14.80
2022-12-18T10:11:48.120Z,18.17
2022-12-18T10:14:37.063Z,14.15
2022-12-18T10:17:27.941Z,13.25
2022-12-18T10:20:06.648Z,13.90
2022-12-18T10:22:46.189Z,16.95
2022-12-18T10:25:32.901Z,14.25
2022-12-18T10:28:12.946Z,15.20
2022-12-18T10:30:42.140Z,15.02
2022-12-18T10:33:19.823Z,14.52
2022-12-18T10:35:49.543Z,13.50
2022-12-18T10:38:18.459Z,15.25
2022-12-18T10:41:23.360Z,13.80
2022-12-18T10:44:13.310Z,14.68
2022-12-18T10:46:41.064Z,13.77
2022-12-18T10:49:22.635Z,12.55
2022-12-18T10:51:50.869Z,15.82
2022-12-18T10:54:24.435Z,16.05
2022-12-18T10:56:52.082Z,12.95
2022-12-18T10:59:20.346Z,10.93
2022-12-18T11:01:56.892Z,13.35
2022-12-18T11:04:27.019Z,12.88
2022-12-18T11:06:58.054Z,14.88
2022-12-18T11:09:32.924Z,12.95
2022-12-18T11:12:03.875Z,14.98
2022-12-18T11:14:47.198Z,15.32
2022-12-18T11:17:36.037Z,13.40
2022-12-18T11:20:08.292Z,14.85
2022-12-18T11:22:37.678Z,15.10
2022-12-18T11:25:35.925Z,14.77
2022-12-18T11:28:49.101Z,18.83
2022-12-18T11:31:29.526Z,17.23
2022-12-18T11:34:29.733Z,16.90
2022-12-18T11:37:01.012Z,16.83
2022-12-18T11:39:43.533Z,13.85
2022-12-18T11:42:15.794Z,16.97
2022-12-18T11:44:59.645Z,17.80
2022-12-18T11:47:42.082Z,15.32
2022-12-18T11:50:19.903Z,18.60
2022-12-18T11:52:50.406Z,14.27
2022-12-18T11:55:47.795Z,16.23
2022-12-18T11:58:33.871Z,16.15
2022-12-18T12:01:04.293Z,18.60
2022-12-18T12:03:41.233Z,20.05
2022-12-18T12:06:21.391Z,17.85
2022-12-18T12:08:57.736Z,18.08
2022-12-18T12:11:38.663Z,16.50
2022-12-18T12:14:30.793Z,16.48
2022-12-18T12:17:13.845Z,16.80
2022-12-18T12:20:15.115Z,17.27
2022-12-18T12:23:16.578Z,16.58
2022-12-18T12:26:13.858Z,14.45
2022-12-18T12:28:53.408Z,16.17
2022-12-18T12:31:39.124Z,14.35
2022-12-18T12:34:33.456Z,17.85
2022-12-18T12:37:30.661Z,16.02
2022-12-18T12:39:58.192Z,14.23
2022-12-18T12:43:01.186Z,13.85
2022-12-18T12:45:42.508Z,15.82
2022-12-18T12:48:33.248Z,20.48
2022-12-18T12:51:08.492Z,15.77
2022-12-18T12:53:39.221Z,18.25
2022-12-18T12:56:10.022Z,14.05
2022-12-18T12:58:40.287Z,21.63
2022-12-18T13:01:23.602Z,13.70
2022-12-18T13:06:44.867Z,17.75
2022-12-18T13:09:13.997Z,19.70
2022-12-18T13:12:06.971Z,17.73
2022-12-18T13:17:21.743Z,16.40
2022-12-18T13:20:04.548Z,14.30
2022-12-18T13:22:41.023Z,16.25
2022-12-18T13:25:35.081Z,22.30
2022-12-18T13:28:16.591Z,16.90
2022-12-18T13:30:47.549Z,14.77
2022-12-18T13:33:15.075Z,14.80
2022-12-18T13:36:02.875Z,17.48
2022-12-18T13:38:33.692Z,16.90
2022-12-18T13:41:23.756Z,18.73
2022-12-18T13:43:59.302Z,17.60
2022-12-18T13:46:46.987Z,15.90
2022-12-18T13:49:14.485Z,13.60
2022-12-18T13:51:45.593Z,17.45
2022-12-18T13:54:30.287Z,13.52
2022-12-18T13:56:57.928Z,21.85
2022-12-18T13:59:36.264Z,17.50
2022-12-18T14:02:15.757Z,16.67
2022-12-18T14:04:47.300Z,16.13
2022-12-18T14:07:20.448Z,17.02
2022-12-18T14:09:52.297Z,13.13
2022-12-18T14:12:48.188Z,21.10
2022-12-18T14:15:37.933Z,18.00
2022-12-18T14:18:29.717Z,18.55
2022-12-18T14:21:00.253Z,18.90
2022-12-18T14:23:30.330Z,15.10
2022-12-18T14:26:03.612Z,19.90
2022-12-18T14:28:33.467Z,18.15
2022-12-18T14:31:01.040Z,23.45
2022-12-18T14:33:29.425Z,16.90
2022-12-18T14:36:05.853Z,22.45
2022-12-18T14:38:37.525Z,21.60
2022-12-18T14:41:08.230Z,17.10
2022-12-18T14:43:38.161Z,20.55
2022-12-18T14:46:45.977Z,19.77
2022-12-18T14:49:34.181Z,21.13
2022-12-18T14:52:04.908Z,16.20
2022-12-18T14:54:33.865Z,22.60
2022-12-18T14:57:05.250Z,22.20
2022-12-18T14:59:33.767Z,20.13
2022-12-18T15:02:23.311Z,21.33
2022-12-18T15:05:12.706Z,22.40
2022-12-18T15:07:45.872Z,21.15
2022-12-18T15:10:21.498Z,14.40
2022-12-18T15:12:50.593Z,18.98
2022-12-18T15:15:40.861Z,19.10
2022-12-18T15:18:13.571Z,18.52
2022-12-18T15:20:42.702Z,19.42
2022-12-18T15:23:34.034Z,18.15
2022-12-18T15:26:09.949Z,18.13
2022-12-18T15:28:47.049Z,20.77
2022-12-18T15:31:14.597Z,18.65
2022-12-18T15:33:51.638Z,19.13
2022-12-18T15:36:21.365Z,18.05
2022-12-18T15:39:02.142Z,20.42
2022-12-18T15:41:37.992Z,20.20
2022-12-18T15:44:24.681Z,16.80
2022-12-18T15:46:52.678Z,22.08
2022-12-18T15:49:20.320Z,19.73
2022-12-18T15:52:00.545Z,17.92
2022-12-18T15:54:48.030Z,23.98
2022-12-18T15:57:27.160Z,21.35
2022-12-18T16:00:01.850Z,21.00
2022-12-18T16:02:50.934Z,24.48
2022-12-18T16:05:27.147Z,20.60
2022-12-18T16:07:56.070Z,24.85
2022-12-18T16:10:30.095Z,17.67
2022-12-18T16:12:58.490Z,27.48
2022-12-18T16:15:40.559Z,18.52
2022-12-18T16:18:09.906Z,20.73
2022-12-18T16:20:38.980Z,20.95
2022-12-18T16:23:09.099Z,17.92
2022-12-18T16:25:39.032Z,20.20
2022-12-18T16:28:10.368Z,19.40
2022-12-18T16:30:39.122Z,18.15
2022-12-18T16:33:15.082Z,19.17
2022-12-18T16:35:44.771Z,21.15
2022-12-18T16:38:26.607Z,23.70
2022-12-18T16:41:15.118Z,28.02
2022-12-18T16:43:44.125Z,20.70
2022-12-18T16:46:14.966Z,23.33
2022-12-18T16:48:45.974Z,24.27
2022-12-18T16:51:14.039Z,28.67
2022-12-18T16:53:53.627Z,19.55
2022-12-18T16:56:28.739Z,19.92
2022-12-18T16:59:04.094Z,22.73
2022-12-18T17:01:34.737Z,24.88
2022-12-18T17:04:06.800Z,21.13
2022-12-18T17:06:41.960Z,22.38
2022-12-18T17:09:24.523Z,26.48
2022-12-18T17:11:54.678Z,25.77
2022-12-18T17:14:26.077Z,25.35
2022-12-18T17:17:20.919Z,22.40
2022-12-18T17:19:50.459Z,23.58
2022-12-18T17:22:30.040Z,18.45
2022-12-18T17:24:57.907Z,22.75
2022-12-18T17:27:28.646Z,19.92
2022-12-18T17:29:59.147Z,19.98
2022-12-18T17:32:31.596Z,15.40
2022-12-18T17:35:03.932Z,20.42
2022-12-18T17:37:36.304Z,20.88
2022-12-18T17:40:04.513Z,24.63
2022-12-18T17:42:32.464Z,19.23
2022-12-18T17:45:00.127Z,23.45
2022-12-18T17:47:28.322Z,17.48
2022-12-18T17:49:56.004Z,16.13
2022-12-18T17:52:27.162Z,16.73
2022-12-18T17:54:57.424Z,14.02
2022-12-18T17:57:27.870Z,21.05
2022-12-18T17:59:59.393Z,19.83
2022-12-18T18:02:31.148Z,21.35
2022-12-18T18:05:00.925Z,16.10
2022-12-18T18:07:46.103Z,21.23
2022-12-18T18:10:18.254Z,15.60
2022-12-18T18:13:08.677Z,17.75
2022-12-18T18:15:36.379Z,14.95
2022-12-18T18:18:05.692Z,17.15
2022-12-18T18:20:33.367Z,15.98
2022-12-18T18:23:03.772Z,13.48
2022-12-18T18:25:36.594Z,15.30
2022-12-18T18:28:08.414Z,14.80
2022-12-18T18:30:37.661Z,14.05
2022-12-18T18:33:11.814Z,14.98
2022-12-18T18:35:54.214Z,17.42
2022-12-18T18:38:30.571Z,14.80
2022-12-18T18:41:05.123Z,14.10
2022-12-18T18:46:53.171Z,15.05
2022-12-18T18:49:27.904Z,13.68
2022-12-18T18:51:57.674Z,12.80
2022-12-18T18:54:27.586Z,15.77
2022-12-18T18:59:48.603Z,12.75
2022-12-18T19:02:19.617Z,12.57
2022-12-18T19:04:49.495Z,13.55
2022-12-18T19:07:29.501Z,12.07
2022-12-18T19:10:04.645Z,14.07
2022-12-18T19:12:55.099Z,13.85
2022-12-18T19:15:42.339Z,11.90
2022-12-18T19:18:10.109Z,12.77
2022-12-18T19:20:38.454Z,11.65
2022-12-18T19:23:06.156Z,14.80
2022-12-18T19:25:41.828Z,11.45
2022-12-18T19:28:17.377Z,11.40
2022-12-18T19:30:50.332Z,11.50
2022-12-18T19:33:41.585Z,13.73
2022-12-18T19:36:21.272Z,9.57
2022-12-18T19:38:51.498Z,11.60
2022-12-18T19:41:21.522Z,8.27
2022-12-18T19:43:52.594Z,9.85
2022-12-18T19:46:24.084Z,5.40
2022-12-18T19:48:53.733Z,7.07
2022-12-18T19:51:27.017Z,10.10
2022-12-18T19:53:58.789Z,9.93
2022-12-18T19:56:29.647Z,9.77
2022-12-18T19:58:58.132Z,9.45
2022-12-18T20:01:36.549Z,6.03
2022-12-18T20:04:08.571Z,7.32
2022-12-18T20:06:50.839Z,8.10
2022-12-18T20:09:19.794Z,7.60
2022-12-18T20:11:49.430Z,5.75
2022-12-18T20:14:23.343Z,6.35
2022-12-18T20:16:58.279Z,6.90
2022-12-18T20:19:37.775Z,5.93
2022-12-18T20:22:17.086Z,5.75
2022-12-18T20:24:53.427Z,5.07
2022-12-18T20:27:24.809Z,7.00
2022-12-18T20:29:52.590Z,6.85
2022-12-18T20:32:20.666Z,4.07
2022-12-18T20:34:48.534Z,4.70
2022-12-18T20:37:16.306Z,4.53
2022-12-18T20:39:44.438Z,4.53
2022-12-18T20:42:12.928Z,4.70
2022-12-18T20:44:41.703Z,3.42
2022-12-18T20:47:11.271Z,2.72
2022-12-18T20:49:42.057Z,4.00
2022-12-18T20:52:13.481Z,3.22
2022-12-18T20:54:49.990Z,2.45
2022-12-18T20:57:20.552Z,3.70
2022-12-18T20:59:52.165Z,3.45
2022-12-18T21:02:22.136Z,3.42
2022-12-18T21:04:54.932Z,3.40
2022-12-18T21:07:24.117Z,1.80
2022-12-18T21:09:55.251Z,2.08
2022-12-18T21:12:44.930Z,1.42
2022-12-18T21:15:43.919Z,1.63
2022-12-18T21:18:14.526Z,1.63
2022-12-18T21:20:42.769Z,3.28
2022-12-18T21:23:16.506Z,2.80
2022-12-18T21:25:46.665Z,1.80
2022-12-18T21:28:17.313Z,2.33
2022-12-18T21:30:45.313Z,2.05
2022-12-18T21:33:13.041Z,2.55
2022-12-18T21:35:40.588Z,2.72
2022-12-18T21:38:08.578Z,2.10
2022-12-18T21:40:36.410Z,2.95
2022-12-18T21:43:23.274Z,1.92
2022-12-18T21:45:50.761Z,2.08
2022-12-18T21:48:18.358Z,2.03
2022-12-18T21:50:46.055Z,1.70
2022-12-18T21:53:13.857Z,1.65
2022-12-18T21:55:41.427Z,1.80
2022-12-18T21:58:08.929Z,1.35
2022-12-18T22:00:36.505Z,1.90
2022-12-18T22:03:18.216Z,2.20
2022-12-18T22:06:08.972Z,1.30
2022-12-18T22:08:44.021Z,1.60
2022-12-18T22:11:17.429Z,1.10
2022-12-18T22:13:49.670Z,1.38
2022-12-18T22:16:21.425Z,1.15
2022-12-18T22:18:52.065Z,1.42
2022-12-18T22:21:29.621Z,1.48
2022-12-18T22:24:01.870Z,1.50
2022-12-18T22:26:44.130Z,1.45
2022-12-18T22:29:39.421Z,1.58
2022-12-18T22:32:11.537Z,1.05
2022-12-18T22:34:48.899Z,1.60
2022-12-18T22:37:17.792Z,1.50
2022-12-18T22:39:45.639Z,1.70
2022-12-18T22:42:19.784Z,1.40
2022-12-18T22:44:48.797Z,1.50
2022-12-18T22:47:29.191Z,0.80
2022-12-18T22:50:01.361Z,1.05
2022-12-18T22:55:08.467Z,1.25
2022-12-18T22:57:38.027Z,1.10
2022-12-18T23:00:13.543Z,1.33
2022-12-18T23:02:45.872Z,1.45
2022-12-18T23:08:04.293Z,1.15
2022-12-18T23:10:37.312Z,1.10
2022-12-18T23:13:12.356Z,1.20
2022-12-18T23:15:44.339Z,1.38
2022-12-18T23:18:28.065Z,0.90
2022-12-18T23:20:56.838Z,1.50
2022-12-18T23:23:29.226Z,0.90
2022-12-18T23:26:06.754Z,1.35
2022-12-18T23:28:43.594Z,1.08
2022-12-18T23:31:40.040Z,1.40
2022-12-18T23:34:25.639Z,1.80
2022-12-18T23:36:59.478Z,1.30
2022-12-18T23:39:37.408Z,1.60
2022-12-18T23:42:16.581Z,1.45
2022-12-18T23:44:48.699Z,1.60
2022-12-18T23:47:23.935Z,1.88
2022-12-18T23:49:52.212Z,1.77
2022-12-18T23:52:37.908Z,1.95
2022-12-18T23:58:26.603Z,1.60
